CheckWX is a tool to help pilots better visualize weather data.  It is not intended as a substitute for an official pre-flight weather briefing.

01:07:18 UTC

KPOB METAR
Pope AAF Airport
Fayetteville, North Carolina, USA
Current

11 mins ago

KPOB 100056Z AUTO 32004KT 10SM FEW038 BKN190 25/24 A2986 RMK AO2 RAE05DZB05E20 SLP112 P0001 T02450238 $
Observed
Jul-10 @ 00:56 UTC
Wind
  • 320° at 4 KTS
Visibility
10 SM
Flight Rules
VFR
Cloud Levels
  • Few at 3,800' AGL
  • Broken at 19,000' AGL
Temperature
24°C / 75°F
Dewpoint
24°C / 75°F
Humidity
100%
Altimeter
29.86" Hg
Pressure
1011.22 hPa
Current Rain
0.01"
Previous

47 mins ago

KPOB 100020Z AUTO 00000KT 10SM SCT190 SCT240 25/24 A2986 RMK AO2 LTG DSNT N RAE05DZB05E20 SLP112 $
Observed
Jul-10 @ 00:20 UTC
Visibility
10 SM
Flight Rules
VFR
Cloud Levels
  • Scattered at 19,000' AGL
  • Scattered at 24,000' AGL
Temperature
25°C / 77°F
Dewpoint
24°C / 75°F
Humidity
94%
Altimeter
29.86" Hg
Pressure
1011.22 hPa
Previous

1 hour ago

KPOB 092339Z AUTO 29004KT 10SM -RA FEW060 25/24 A2985 RMK AO2 RAE06DZB06E08DZB14E32RAB39 SLP109 $
Observed
Jul-9 @ 23:39 UTC
Wind
  • 290° at 4 KTS
Visibility
10 SM
Flight Rules
VFR
Conditions
Light Rain
Cloud Levels
  • Few at 6,000' AGL
Temperature
25°C / 77°F
Dewpoint
24°C / 75°F
Humidity
94%
Altimeter
29.85" Hg
Pressure
1010.82 hPa